Terminal Aerodrome Forecast
Issued by NWS

Home | Current Version | Previous Version | Text Only | Print | Product List | Glossary On
Versions: 1 2 3 4 5 6 7 8 9 10 11 12 13 14 15 16 17 18 19 20 21 22 23 24 25 26 27 28 29 30 31 32 33 34 35 36 37 38 39
000
FTUS43 KGLD 031120
TAFMCK
TAF
KMCK 031120Z 0312/0412 22006KT P6SM SKC
     FM031800 VRB04KT P6SM FEW110
     FM032300 14005KT P6SM VCTS SCT100CB
     FM040500 20007KT P6SM BKN110
     FM040700 VRB05KT P6SM SCT250=

USA.gov is the U.S. government's official web portal to all federal, state and local government web resources and services.